Latest Weather Observations for Learmonth

IDW60801

Issued at 9:03 pm WST Monday 25 January 2021 (issued every 10 minutes, with the page automatically refreshed every 10 minutes)

About weather observations | Map of weather stations | Latest weather observations for WA | Other Formats
Station Details ID: 005007 Name: LEARMONTH AIRPORT Lat: -22.24 Lon: 114.10 Height: 5.0 m
Data from the previous 72 hours. | See also: Recent months at Learmonth
Date/Time
WST
Temp
°C
App
Temp
°C
Dew
Point
°C
Rel
Hum
%
Delta-T
°C
Wind Press
QNH
hPa
Press
MSL
hPa
Rain since
9am
mm
Dir  Spd
km/h
Gust
km/h
Spd
kts
Gust
kts
25/09:00pm 25.7 22.1 17.1 59 5.4 SW 32 41 17 22 1006.7 1006.6 0.0
25/08:30pm 26.0 22.1 16.5 55 5.9 SW 32 43 17 23 1006.5 1006.4 0.0
25/08:00pm 26.4 22.4 16.3 53 6.2 SW 32 44 17 24 1006.2 1006.1 0.0
25/07:30pm 26.7 22.3 16.6 54 6.3 SW 35 50 19 27 1005.9 1005.8 0.0
25/07:00pm 27.7 23.8 16.9 51 6.8 SW 33 46 18 25 1005.6 1005.5 0.0
25/06:30pm 29.0 24.4 17.2 49 7.4 WSW 37 50 20 27 1005.4 1005.3 0.0
25/06:00pm 30.3 26.0 17.0 44 8.4 SW 35 44 19 24 1005.2 1005.1 0.0
25/05:30pm 30.8 26.5 16.8 43 8.8 SW 35 46 19 25 1005.1 1005.0 0.0
25/05:00pm 31.8 27.6 16.1 38 9.8 SW 33 46 18 25 1004.9 1004.8 0.0
25/04:30pm 32.8 28.3 15.3 34 10.9 SW 33 43 18 23 1004.7 1004.6 0.0
25/04:00pm 34.1 29.1 13.5 28 12.5 SW 32 41 17 22 1004.7 1004.6 0.0
25/03:30pm 34.5 29.8 13.3 27 12.9 SW 30 39 16 21 1004.8 1004.7 0.0
25/03:00pm 34.4 29.9 13.8 29 12.6 SW 30 37 16 20 1004.9 1004.8 0.0
25/02:30pm 35.0 31.1 14.3 29 12.8 SW 28 43 15 23 1005.0 1004.9 0.0
25/02:00pm 35.3 30.3 9.7 21 14.8 SSW 26 39 14 21 1005.2 1005.1 0.0
25/01:30pm 34.7 30.3 10.5 23 14.1 S 24 37 13 20 1005.5 1005.4 0.0
25/01:00pm 33.3 29.9 11.2 26 13.0 S 20 43 11 23 1005.8 1005.7 0.0
25/12:30pm 32.9 30.3 12.0 28 12.3 SSE 17 33 9 18 1006.2 1006.1 0.0
25/12:00pm 32.4 28.7 12.6 30 11.8 SSE 24 41 13 22 1006.6 1006.5 0.0
25/11:30am 30.6 26.2 13.0 34 10.5 SSE 28 37 15 20 1006.9 1006.8 0.0
25/11:00am 30.0 26.1 13.3 36 10.0 SSE 26 44 14 24 1007.5 1007.4 0.0
25/10:30am 29.5 25.7 13.7 38 9.5 S 26 35 14 19 1007.9 1007.8 0.0
25/10:00am 28.2 23.8 14.1 42 8.5 S 30 41 16 22 1008.2 1008.1 0.0
25/09:30am 28.3 24.3 15.2 44 8.0 S 30 41 16 22 1008.4 1008.3 0.0
25/09:00am 26.9 23.3 16.2 52 6.6 S 30 41 16 22 1008.6 1008.5 0.0
25/08:30am 26.2 22.7 16.4 54 6.0 S 30 39 16 21 1008.7 1008.6 0.0
25/08:00am 25.1 21.5 17.3 62 4.9 S 32 41 17 22 1008.8 1008.7 0.0
25/07:30am 24.5 21.7 17.2 63 4.5 S 28 37 15 20 1008.9 1008.8 0.0
25/07:00am 23.4 20.6 17.4 69 3.7 SSW 28 37 15 20 1008.9 1008.8 0.0
25/06:30am 22.2 21.2 17.6 75 2.8 SSW 19 22 10 12 1008.7 1008.6 0.0
25/06:00am 21.4 20.3 17.4 78 2.5 SSW 19 24 10 13 1008.4 1008.3 0.0
25/05:30am 21.6 20.4 17.4 77 2.6 SSW 20 30 11 16 1008.1 1008.0 0.0
25/05:00am 21.9 19.6 17.5 76 2.7 SSW 26 32 14 17 1007.8 1007.7 0.0
25/04:30am 22.0 20.1 17.6 76 2.7 SSW 24 32 13 17 1007.8 1007.7 0.0
25/04:00am 22.1 20.2 17.7 76 2.7 SSW 24 32 13 17 1007.6 1007.5 0.0
25/03:30am 22.2 19.9 17.6 75 2.8 SSW 26 35 14 19 1007.4 1007.3 0.0
25/03:00am 22.5 20.6 17.6 74 3.0 SSW 24 32 13 17 1007.5 1007.4 0.0
25/02:30am 22.6 20.6 17.3 72 3.3 SSW 24 30 13 16 1007.4 1007.3 0.0
25/02:00am 22.7 20.8 17.6 73 3.2 SSW 24 32 13 17 1007.5 1007.4 0.0
25/01:30am 22.7 21.6 17.8 74 3.0 SSW 20 26 11 14 1007.6 1007.5 0.0
25/01:00am 22.8 21.4 17.9 74 3.1 SSW 22 28 12 15 1007.6 1007.5 0.0
25/12:30am 23.3 21.6 18.0 72 3.3 SSW 24 30 13 16 1007.8 1007.7 0.0
25/12:00am 23.8 21.3 18.0 70 3.6 SSW 28 35 15 19 1008.1 1008.0 0.0
 
Date/Time
WST
Temp
°C
App
Temp
°C
Dew
Point
°C
Rel
Hum
%
Delta-T
°C
Wind Press
QNH
hPa
Press
MSL
hPa
Rain since
9am
mm
Dir  Spd
km/h
Gust
km/h
Spd
kts
Gust
kts
24/11:30pm 24.1 21.1 17.8 68 3.9 SW 30 39 16 21 1008.2 1008.1 0.0
24/11:00pm 24.3 21.6 17.5 66 4.2 SW 28 39 15 21 1008.3 1008.2 0.0
24/10:30pm 24.4 21.8 16.9 63 4.6 SW 26 35 14 19 1008.3 1008.2 0.0
24/10:00pm 24.8 21.4 16.8 61 4.9 SW 30 39 16 21 1008.3 1008.2 0.0
24/09:30pm 25.0 21.2 16.7 60 5.1 SW 32 39 17 21 1007.8 1007.7 0.0
24/09:00pm 25.2 22.2 16.9 60 5.1 SW 28 41 15 22 1008.0 1007.9 0.0
24/08:30pm 25.4 22.0 16.8 59 5.3 SW 30 43 16 23 1007.7 1007.6 0.0
24/08:00pm 25.9 21.8 16.5 56 5.8 SW 33 46 18 25 1007.5 1007.4 0.0
24/07:30pm 26.7 22.2 15.4 50 6.9 SW 33 39 18 21 1007.3 1007.2 0.0
24/07:00pm 28.0 23.1 14.3 43 8.2 WSW 33 41 18 22 1006.8 1006.7 0.0
24/06:30pm 29.7 25.4 14.3 39 9.3 SW 30 41 16 22 1006.7 1006.6 0.0
24/06:00pm 30.7 25.6 13.0 33 10.6 SW 32 43 17 23 1006.2 1006.1 0.0
24/05:30pm 31.8 26.4 12.1 30 11.6 SW 32 41 17 22 1006.0 1005.9 0.0
24/05:00pm 32.2 27.4 12.9 31 11.6 SSW 30 39 16 21 1005.8 1005.7 0.0
24/04:30pm 32.9 28.2 12.0 28 12.3 SSW 28 41 15 22 1005.9 1005.8 0.0
24/04:00pm 32.4 28.0 11.6 28 12.2 SW 26 37 14 20 1006.0 1005.9 0.0
24/03:30pm 32.3 27.8 14.9 35 10.7 SW 32 41 17 22 1006.3 1006.2 0.0
24/03:01pm 33.6 29.2 15.1 33 11.5 SW 32 50 17 27 1006.2 1006.1 0.0
24/03:00pm 33.5 29.0 15.0 32 11.5 SW 32 46 17 25 1006.3 1006.2 0.0
24/02:53pm 32.9 29.2 15.0 34 11.1 SW 28 46 15 25 1006.3 1006.2 0.0
24/02:30pm 33.2 29.4 14.8 33 11.3 SSW 28 39 15 21 1006.3 1006.2 0.0
24/02:00pm 33.0 29.4 14.1 32 11.6 SSW 26 39 14 21 1006.7 1006.6 0.0
24/01:30pm 34.0 30.3 15.0 32 11.8 SW 28 41 15 22 1006.8 1006.7 0.0
24/01:00pm 33.4 30.4 14.9 32 11.5 SW 24 43 13 23 1006.9 1006.8 0.0
24/12:30pm 33.3 31.4 15.3 34 11.2 SW 19 39 10 21 1007.2 1007.1 0.0
24/12:00pm 32.4 30.2 15.0 35 10.8 SSW 20 33 11 18 1007.7 1007.6 0.0
24/11:30am 32.2 30.3 15.7 37 10.3 WSW 20 32 11 17 1008.0 1007.9 0.0
24/11:00am 31.8 30.0 16.1 38 9.8 SW 20 30 11 16 1008.5 1008.4 0.0
24/10:30am 30.4 28.2 16.0 41 9.0 SSW 22 32 12 17 1008.8 1008.7 0.0
24/10:00am 29.6 27.6 16.4 45 8.2 SW 22 33 12 18 1009.1 1009.0 0.0
24/09:30am 28.9 27.7 17.1 49 7.4 SSW 19 32 10 17 1009.1 1009.0 0.0
24/09:00am 27.9 26.5 17.1 51 6.8 SSW 20 28 11 15 1009.1 1009.0 0.0
24/08:30am 27.0 25.8 17.5 56 6.0 SSW 20 30 11 16 1009.3 1009.2 0.0
24/08:00am 26.5 25.5 17.6 58 5.6 S 19 28 10 15 1009.3 1009.2 0.0
24/07:30am 25.7 24.9 17.1 59 5.3 S 17 22 9 12 1009.2 1009.1 0.0
24/07:00am 24.6 25.0 18.1 67 4.1 S 13 17 7 9 1009.1 1009.0 0.0
24/06:30am 23.6 24.9 18.5 73 3.2 S 9 13 5 7 1008.6 1008.5 0.0
24/06:00am 23.4 24.0 18.5 74 3.1 S 13 17 7 9 1008.2 1008.1 0.0
24/05:30am 23.5 24.3 18.2 72 3.3 SSW 11 13 6 7 1007.7 1007.6 0.0
24/05:00am 23.7 24.6 18.4 72 3.3 SSW 11 15 6 8 1007.4 1007.3 0.0
24/04:30am 23.8 24.3 18.4 72 3.4 SSW 13 17 7 9 1007.2 1007.1 0.0
24/04:00am 24.1 24.4 18.7 72 3.4 SSW 15 19 8 10 1007.0 1006.9 0.0
24/03:30am 24.4 24.2 18.6 70 3.7 SSW 17 22 9 12 1006.8 1006.7 0.0
24/03:00am 24.7 24.3 18.9 70 3.7 SSW 19 24 10 13 1006.6 1006.5 0.0
24/02:30am 24.9 24.8 18.8 69 3.9 SSW 17 24 9 13 1006.8 1006.7 0.0
24/02:00am 25.0 24.0 18.9 69 3.9 SSW 22 28 12 15 1006.9 1006.8 0.0
24/01:30am 25.3 24.1 19.2 69 3.9 SSW 24 33 13 18 1006.9 1006.8 0.0
24/01:00am 25.4 24.2 19.3 69 3.9 SW 24 32 13 17 1007.2 1007.1 0.0
24/12:30am 25.4 25.0 19.3 69 3.9 SW 20 28 11 15 1007.5 1007.4 0.0
24/12:00am 25.4 24.9 19.1 68 4.0 SSW 20 26 11 14 1007.6 1007.5 0.0
 
Date/Time
WST
Temp
°C
App
Temp
°C
Dew
Point
°C
Rel
Hum
%
Delta-T
°C
Wind Press
QNH
hPa
Press
MSL
hPa
Rain since
9am
mm
Dir  Spd
km/h
Gust
km/h
Spd
kts
Gust
kts
23/11:30pm 25.4 25.0 19.3 69 3.9 SSW 20 28 11 15 1007.6 1007.5 0.0
23/11:00pm 25.5 25.1 19.4 69 3.9 SSW 20 26 11 14 1007.8 1007.7 0.0
23/10:30pm 25.7 25.5 19.3 67 4.1 SSW 19 26 10 14 1007.9 1007.8 0.0
23/10:00pm 25.9 25.5 19.3 67 4.3 SSW 20 26 11 14 1007.9 1007.8 0.0
23/09:30pm 26.3 24.9 18.9 63 4.7 SW 24 32 13 17 1007.7 1007.6 0.0
23/09:00pm 26.6 25.3 19.0 63 4.9 SW 24 32 13 17 1007.5 1007.4 0.0
23/08:30pm 26.8 24.7 18.9 62 5.1 SW 28 37 15 20 1007.2 1007.1 0.0
23/08:00pm 27.2 25.0 18.8 60 5.4 SW 28 39 15 21 1007.0 1006.9 0.0
23/07:30pm 27.9 26.2 18.9 58 5.8 SW 26 35 14 19 1006.9 1006.8 0.0
23/07:00pm 28.6 26.2 19.0 56 6.2 WSW 30 37 16 20 1006.4 1006.3 0.0
23/06:30pm 29.5 26.5 18.6 52 7.0 WSW 32 41 17 22 1005.9 1005.8 0.0
23/06:00pm 30.5 27.3 18.2 47 7.9 WSW 32 43 17 23 1005.5 1005.4 0.0
23/05:30pm 31.4 28.5 18.0 44 8.6 WSW 30 39 16 21 1005.1 1005.0 0.0
23/05:00pm 32.6 29.8 17.2 39 9.8 SW 28 39 15 21 1004.8 1004.7 0.0
23/04:57pm 32.9 30.2 17.5 39 9.9 WSW 28 46 15 25 1004.8 1004.7 0.0
23/04:30pm 33.0 30.5 18.0 41 9.7 WSW 28 43 15 23 1004.6 1004.5 0.0
23/04:16pm 32.6 30.3 18.4 43 9.2 WSW 28 46 15 25 1004.7 1004.6 0.0
23/04:00pm 32.8 29.6 18.2 42 9.5 W 32 43 17 23 1004.7 1004.6 0.0
23/03:30pm 33.1 29.9 18.1 41 9.7 WSW 32 52 17 28 1004.9 1004.8 0.0
23/03:25pm 33.1 29.9 18.1 41 9.7 WSW 32 52 17 28 1004.9 1004.8 0.0
23/03:00pm 33.9 30.6 18.0 39 10.3 WSW 32 48 17 26 1005.0 1004.9 0.0
23/02:30pm 34.2 30.7 16.5 34 11.2 WSW 30 41 16 22 1004.8 1004.7 0.0
23/02:00pm 34.7 31.4 16.1 33 11.8 SW 28 41 15 22 1005.0 1004.9 0.0
23/01:30pm 33.5 30.1 16.8 36 10.6 WSW 30 41 16 22 1005.0 1004.9 0.0
23/01:20pm 34.8 31.9 17.1 35 11.3 WSW 28 50 15 27 1004.8 1004.7 0.0
23/01:00pm 34.8 32.1 16.6 33 11.6 SW 26 41 14 22 1005.0 1004.9 0.0
23/12:30pm 34.3 32.9 17.1 36 11.0 SW 20 32 11 17 1005.1 1005.0 0.0
23/12:00pm 32.9 30.8 17.1 39 10.1 SW 24 35 13 19 1005.4 1005.3 0.0
23/11:30am 32.9 31.6 16.7 38 10.3 WSW 19 32 10 17 1005.8 1005.7 0.0
23/11:00am 32.0 30.8 17.1 41 9.5 SW 19 35 10 19 1005.9 1005.8 0.0
23/10:30am 31.0 29.7 17.3 43 8.7 SW 20 30 11 16 1006.3 1006.2 0.0
23/10:00am 30.3 29.4 18.1 48 7.8 SW 20 30 11 16 1006.5 1006.4 0.0
23/09:30am 29.2 28.5 18.3 51 7.0 SW 19 28 10 15 1006.7 1006.6 0.0
23/09:00am 27.5 26.8 18.2 57 5.9 SW 19 32 10 17 1006.6 1006.5 0.0
23/08:30am 27.2 25.5 18.2 58 5.7 S 24 33 13 18 1006.1 1006.0 0.0
23/08:00am 25.8 24.1 18.2 63 4.8 S 24 32 13 17 1006.1 1006.0 0.0
23/07:30am 25.1 23.5 18.3 66 4.3 S 24 33 13 18 1005.9 1005.8 0.0
23/07:00am 24.6 23.7 18.3 68 4.0 S 20 30 11 16 1005.4 1005.3 0.0
23/06:30am 24.0 25.2 19.1 74 3.1 SSW 11 17 6 9 1005.1 1005.0 0.0
23/06:00am 23.3 23.7 19.0 77 2.7 SSW 15 17 8 9 1004.6 1004.5 0.0
23/05:30am 22.7 22.7 18.9 79 2.4 SSW 17 20 9 11 1004.4 1004.3 0.0
23/05:00am 23.0 23.0 19.0 78 2.5 SSW 17 20 9 11 1004.2 1004.1 0.0
23/04:30am 23.2 22.9 19.2 78 2.5 SW 19 24 10 13 1004.0 1003.9 0.0
23/04:00am 23.5 23.0 19.2 77 2.7 SSW 20 28 11 15 1003.7 1003.6 0.0
23/03:30am 23.8 24.0 19.3 76 2.9 SSW 17 24 9 13 1003.8 1003.7 0.0
23/03:00am 24.2 23.1 19.5 75 3.0 SW 24 30 13 16 1003.8 1003.7 0.0
23/02:30am 24.4 24.1 19.5 74 3.1 SSW 20 30 11 16 1004.0 1003.9 0.0
23/02:00am 24.8 24.1 19.6 73 3.4 SSW 22 32 12 17 1004.1 1004.0 0.0
23/01:30am 25.1 23.1 19.9 73 3.4 SSW 30 43 16 23 1004.0 1003.9 0.0
23/01:00am 25.2 24.1 20.2 74 3.3 SSW 26 35 14 19 1004.3 1004.2 0.0
23/12:30am 25.6 24.6 20.4 73 3.4 SSW 26 37 14 20 1004.6 1004.5 0.0
23/12:00am 25.9 24.5 20.5 72 3.5 SW 28 41 15 22 1005.0 1004.9 0.0
 
Date/Time
WST
Temp
°C
App
Temp
°C
Dew
Point
°C
Rel
Hum
%
Delta-T
°C
Wind Press
QNH
hPa
Press
MSL
hPa
Rain since
9am
mm
Dir  Spd
km/h
Gust
km/h
Spd
kts
Gust
kts
22/11:30pm 25.8 24.9 20.6 73 3.4 SW 26 33 14 18 1005.2 1005.1 0.0
22/11:00pm 25.9 24.9 20.5 72 3.5 SW 26 35 14 19 1005.3 1005.2 0.0
22/10:30pm 26.2 25.2 20.5 71 3.7 SW 26 35 14 19 1005.3 1005.2 0.0
22/10:00pm 26.3 24.6 20.6 71 3.8 SW 30 39 16 21 1005.1 1005.0 0.0
22/09:30pm 26.5 24.5 20.8 71 3.8 SW 32 37 17 20 1004.6 1004.5 0.0

Other formats

Comma delimited format used in spreadsheet applications
http://www.bom.gov.au/fwo/IDW60801/IDW60801.94302.axf

JavaScript Object Notation format (JSON) in row-major order
http://www.bom.gov.au/fwo/IDW60801/IDW60801.94302.json

Data quality

Most of these data are generated automatically and are frequently updated. Quality checks on data are not normally performed. It is possible for incorrect values to appear. Refer to information at About Latest Weather Observations and please check the disclaimer before using these data.